createdAt,value
2022-08-23T00:02:37.348Z,94764.69
2022-08-23T00:05:34.330Z,94757.91
2022-08-23T00:08:21.315Z,94759.75
2022-08-23T00:10:54.401Z,94760.72
2022-08-23T00:13:47.892Z,94757.50
2022-08-23T00:16:21.415Z,94759.34
2022-08-23T00:19:10.325Z,94769.84
2022-08-23T00:21:51.315Z,94761.25
2022-08-23T00:24:45.340Z,94754.53
2022-08-23T00:27:40.324Z,94750.59
2022-08-23T00:30:27.350Z,94748.25
2022-08-23T00:33:08.334Z,94751.84
2022-08-23T00:35:55.352Z,94752.66
2022-08-23T00:38:32.983Z,94755.34
2022-08-23T00:41:21.311Z,94760.63
2022-08-23T00:44:14.001Z,94766.03
2022-08-23T00:47:22.320Z,94768.56
2022-08-23T00:50:23.581Z,94757.38
2022-08-23T00:53:30.356Z,94750.53
2022-08-23T00:56:26.359Z,94759.25
2022-08-23T00:59:16.344Z,94752.56
2022-08-23T01:01:56.421Z,94763.81
2022-08-23T01:05:02.363Z,94759.56
2022-08-23T01:08:04.371Z,94761.31
2022-08-23T01:11:01.364Z,94772.41
2022-08-23T01:13:57.325Z,94780.94
2022-08-23T01:16:52.363Z,94775.00
2022-08-23T01:19:42.353Z,94773.41
2022-08-23T01:22:41.395Z,94773.56
2022-08-23T01:25:17.470Z,94774.28
2022-08-23T01:28:11.374Z,94763.13
2022-08-23T01:31:06.519Z,94768.44
2022-08-23T01:33:57.335Z,94764.16
2022-08-23T01:36:31.532Z,94778.84
2022-08-23T01:39:18.350Z,94785.69
2022-08-23T01:41:58.381Z,94780.59
2022-08-23T01:44:52.365Z,94784.94
2022-08-23T01:47:46.377Z,94782.19
2022-08-23T01:50:34.446Z,94783.88
2022-08-23T01:53:15.497Z,94782.97
2022-08-23T01:55:55.382Z,94783.72
2022-08-23T01:58:38.502Z,94782.03
2022-08-23T02:01:18.430Z,94788.13
2022-08-23T02:04:04.561Z,94792.47
2022-08-23T02:06:45.405Z,94789.94
2022-08-23T02:09:32.380Z,94790.88
2022-08-23T02:12:06.096Z,94789.88
2022-08-23T02:14:52.389Z,94793.34
2022-08-23T02:17:25.724Z,94794.13
2022-08-23T02:20:12.398Z,94785.59
2022-08-23T02:22:52.394Z,94788.19
2022-08-23T02:25:39.404Z,94788.19
2022-08-23T02:28:19.402Z,94787.38
2022-08-23T02:31:06.397Z,94789.06
2022-08-23T02:33:46.400Z,94786.47
2022-08-23T02:36:33.404Z,94787.38
2022-08-23T02:39:08.585Z,94780.53
2022-08-23T02:41:55.409Z,94780.59
2022-08-23T02:44:28.770Z,94783.19
2022-08-23T02:47:18.395Z,94777.94
2022-08-23T02:49:59.436Z,94777.09
2022-08-23T02:52:40.488Z,94778.84
2022-08-23T02:55:20.407Z,94785.00
2022-08-23T02:58:07.401Z,94784.16
2022-08-23T03:00:40.929Z,94789.28
2022-08-23T03:03:27.444Z,94776.25
2022-08-23T03:06:25.033Z,94783.19
2022-08-23T03:09:09.444Z,94787.44
2022-08-23T03:11:47.520Z,94790.78
2022-08-23T03:14:34.435Z,94794.13
2022-08-23T03:17:10.852Z,94795.94
2022-08-23T03:20:00.511Z,94801.88
2022-08-23T03:22:33.880Z,94803.63
2022-08-23T03:25:21.448Z,94798.41
2022-08-23T03:28:10.440Z,94803.56
2022-08-23T03:30:57.429Z,94802.66
2022-08-23T03:33:37.448Z,94814.59
2022-08-23T03:36:32.423Z,94812.94
2022-08-23T03:39:19.446Z,94819.84
2022-08-23T03:41:59.433Z,94815.50
2022-08-23T03:45:06.770Z,94819.84
2022-08-23T03:47:46.430Z,94827.59
2022-08-23T03:50:41.425Z,94830.09
2022-08-23T03:53:32.499Z,94829.25
2022-08-23T03:56:12.438Z,94836.09
2022-08-23T03:59:02.754Z,94835.41
2022-08-23T04:01:43.500Z,94835.34
2022-08-23T04:04:37.463Z,94834.44
2022-08-23T04:07:30.771Z,94843.03
2022-08-23T04:10:04.545Z,94847.28
2022-08-23T04:12:54.640Z,94848.19
2022-08-23T04:15:28.531Z,94851.59
2022-08-23T04:18:15.447Z,94855.09
2022-08-23T04:20:49.539Z,94852.59
2022-08-23T04:23:36.494Z,94849.16
2022-08-23T04:26:10.606Z,94856.88
2022-08-23T04:29:00.511Z,94851.69
2022-08-23T04:31:41.462Z,94858.63
2022-08-23T04:34:28.694Z,94857.75
2022-08-23T04:37:01.570Z,94857.84
2022-08-23T04:40:07.522Z,94867.25
2022-08-23T04:42:47.464Z,94861.41
2022-08-23T04:45:35.464Z,94871.66
2022-08-23T04:48:18.868Z,94870.88
2022-08-23T04:51:05.489Z,94869.22
2022-08-23T04:53:45.471Z,94876.97
2022-08-23T04:56:39.480Z,94870.88
2022-08-23T04:59:33.478Z,94869.06
2022-08-23T05:02:21.466Z,94869.06
2022-08-23T05:04:54.595Z,94868.19
2022-08-23T05:07:43.266Z,94871.59
2022-08-23T05:10:19.592Z,94873.25
2022-08-23T05:13:06.490Z,94874.84
2022-08-23T05:15:39.603Z,94874.75
2022-08-23T05:18:26.488Z,94878.09
2022-08-23T05:21:00.583Z,94882.22
2022-08-23T05:23:50.892Z,94882.97
2022-08-23T05:26:34.495Z,94885.50
2022-08-23T05:29:28.513Z,94886.25
2022-08-23T05:32:15.500Z,94890.44
2022-08-23T05:34:55.523Z,94893.88
2022-08-23T05:37:49.509Z,94888.69
2022-08-23T05:40:36.491Z,94886.97
2022-08-23T05:43:18.528Z,94885.16
2022-08-23T05:46:12.896Z,94886.78
2022-08-23T05:48:57.507Z,94888.28
2022-08-23T05:51:51.917Z,94889.16
2022-08-23T05:54:45.516Z,94890.88
2022-08-23T05:57:32.506Z,94899.41
2022-08-23T06:00:05.611Z,94903.53
2022-08-23T06:02:52.528Z,94902.53
2022-08-23T06:05:32.504Z,94906.66
2022-08-23T06:08:26.528Z,94914.38
2022-08-23T06:11:19.520Z,94909.19
2022-08-23T06:14:02.591Z,94910.84
2022-08-23T06:16:59.528Z,94919.38
2022-08-23T06:19:53.502Z,94916.75
2022-08-23T06:22:40.522Z,94914.91
2022-08-23T06:25:13.600Z,94917.41
2022-08-23T06:28:07.548Z,94917.34
2022-08-23T06:31:03.544Z,94922.38
2022-08-23T06:33:50.590Z,94931.81
2022-08-23T06:36:23.634Z,94929.91
2022-08-23T06:39:12.517Z,94922.91
2022-08-23T06:41:48.662Z,94932.22
2022-08-23T06:44:36.523Z,94931.31
2022-08-23T06:47:11.667Z,94929.41
2022-08-23T06:49:58.761Z,94922.41
2022-08-23T06:52:39.529Z,94926.53
2022-08-23T06:55:33.542Z,94935.91
2022-08-23T06:58:20.544Z,94934.03
2022-08-23T07:00:57.367Z,94933.81
2022-08-23T07:03:37.548Z,94930.06
2022-08-23T07:06:18.629Z,94928.09
2022-08-23T07:09:00.539Z,94929.63
2022-08-23T07:11:41.241Z,94929.31
2022-08-23T07:14:23.545Z,94927.88
2022-08-23T07:17:06.663Z,94935.06
2022-08-23T07:19:48.581Z,94936.22
2022-08-23T07:22:31.556Z,94930.63
2022-08-23T07:25:11.560Z,94942.06
2022-08-23T07:28:09.829Z,94943.09
2022-08-23T07:31:05.546Z,94944.91
2022-08-23T07:34:03.585Z,94946.09
2022-08-23T07:36:38.661Z,94957.72
2022-08-23T07:39:27.578Z,94954.81
2022-08-23T07:42:00.704Z,94950.19
2022-08-23T07:44:47.568Z,94941.22
2022-08-23T07:47:28.580Z,94946.91
2022-08-23T07:50:22.611Z,94947.34
2022-08-23T07:53:16.580Z,94950.34
2022-08-23T07:56:25.565Z,94951.34
2022-08-23T07:58:58.754Z,94948.00
2022-08-23T08:01:48.664Z,94948.22
2022-08-23T08:04:28.586Z,94945.78
2022-08-23T08:07:22.602Z,94950.50
2022-08-23T08:10:17.576Z,94938.56
2022-08-23T08:13:04.586Z,94955.09
2022-08-23T08:15:37.658Z,94946.84
2022-08-23T08:18:24.603Z,94943.63
2022-08-23T08:20:57.857Z,94945.50
2022-08-23T08:23:44.564Z,94950.91
2022-08-23T08:26:17.804Z,94951.94
2022-08-23T08:29:11.583Z,94941.03
2022-08-23T08:31:58.596Z,94945.28
2022-08-23T08:34:38.586Z,94941.19
2022-08-23T08:37:32.620Z,94941.38
2022-08-23T08:40:20.674Z,94944.22
2022-08-23T08:43:07.675Z,94941.97
2022-08-23T08:46:09.645Z,94950.88
2022-08-23T08:48:55.615Z,94950.69
2022-08-23T08:52:15.613Z,94953.09
2022-08-23T08:55:09.614Z,94952.34
2022-08-23T08:57:48.700Z,94947.41
2022-08-23T09:00:40.624Z,94952.50
2022-08-23T09:03:27.669Z,94950.53
2022-08-23T09:06:34.610Z,94950.16
2022-08-23T09:09:33.628Z,94945.47
2022-08-23T09:12:36.613Z,94947.84
2022-08-23T09:15:48.644Z,94946.72
2022-08-23T09:18:24.380Z,94946.97
2022-08-23T09:21:14.608Z,94943.22
2022-08-23T09:24:02.617Z,94950.81
2022-08-23T09:26:56.612Z,94946.91
2022-08-23T09:29:52.650Z,94942.72
2022-08-23T09:32:51.639Z,94946.88
2022-08-23T09:35:31.732Z,94948.13
2022-08-23T09:38:26.628Z,94946.34
2022-08-23T09:40:59.713Z,94949.47
2022-08-23T09:43:53.637Z,94946.53
2022-08-23T09:46:51.624Z,94947.19
2022-08-23T09:49:46.674Z,94937.47
2022-08-23T09:52:47.646Z,94947.19
2022-08-23T09:55:45.665Z,94947.50
2022-08-23T09:58:42.756Z,94942.59
2022-08-23T10:01:39.415Z,94946.25
2022-08-23T10:04:30.026Z,94945.81
2022-08-23T10:07:46.655Z,94942.78
2022-08-23T10:10:51.850Z,94943.16
2022-08-23T10:13:38.655Z,94939.09
2022-08-23T10:16:24.706Z,94940.22
2022-08-23T10:19:27.657Z,94941.38
2022-08-23T10:22:23.678Z,94940.94
2022-08-23T10:25:28.750Z,94944.69
2022-08-23T10:29:13.682Z,94947.38
2022-08-23T10:32:25.666Z,94951.69
2022-08-23T10:35:31.659Z,94957.72
2022-08-23T10:38:27.668Z,94957.50
2022-08-23T10:41:32.673Z,94960.69
2022-08-23T10:44:21.664Z,94958.06
2022-08-23T10:47:41.677Z,94957.94
2022-08-23T10:50:28.690Z,94960.38
2022-08-23T10:53:14.868Z,94962.56
2022-08-23T10:56:12.689Z,94969.91
2022-08-23T10:58:52.779Z,94972.41
2022-08-23T11:02:04.684Z,94973.78
2022-08-23T11:04:47.677Z,94964.91
2022-08-23T11:07:37.703Z,94965.22
2022-08-23T11:10:23.692Z,94964.38
2022-08-23T11:13:37.710Z,94961.06
2022-08-23T11:16:35.712Z,94958.72
2022-08-23T11:19:17.254Z,94954.88
2022-08-23T11:22:29.706Z,94949.50
2022-08-23T11:25:29.700Z,94956.50
2022-08-23T11:28:41.708Z,94963.03
2022-08-23T11:31:41.703Z,94954.69
2022-08-23T11:34:32.705Z,94964.91
2022-08-23T11:37:32.711Z,94966.88
2022-08-23T11:40:20.766Z,94957.50
2022-08-23T11:42:59.795Z,94961.88
2022-08-23T11:45:53.743Z,94958.53
2022-08-23T11:48:54.707Z,94957.81
2022-08-23T11:52:08.705Z,94951.03
2022-08-23T11:55:14.741Z,94957.66
2022-08-23T11:57:50.805Z,94960.25
2022-08-23T12:03:47.972Z,94958.31
2022-08-23T12:07:02.738Z,94954.47
2022-08-23T12:09:39.128Z,94955.50
2022-08-23T12:12:39.256Z,94968.75
2022-08-23T12:15:16.817Z,94970.53
2022-08-23T12:18:23.239Z,94963.81
2022-08-23T12:21:05.829Z,94962.19
2022-08-23T12:23:55.748Z,94956.22
2022-08-23T12:26:47.756Z,94954.53
2022-08-23T12:29:45.738Z,94952.16
2022-08-23T12:32:44.869Z,94960.06
2022-08-23T12:36:16.757Z,94954.34
2022-08-23T12:39:07.185Z,94965.84
2022-08-23T12:42:22.748Z,94956.44
2022-08-23T12:45:14.774Z,94955.63
2022-08-23T12:48:04.764Z,94961.91
2022-08-23T12:50:48.767Z,94960.22
2022-08-23T12:53:44.534Z,94961.16
2022-08-23T12:56:36.956Z,94965.66
2022-08-23T12:59:43.770Z,94960.63
2022-08-23T13:02:31.839Z,94959.06
2022-08-23T13:05:40.762Z,94958.44
2022-08-23T13:08:35.757Z,94956.78
2022-08-23T13:11:10.853Z,94956.78
2022-08-23T13:13:57.800Z,94953.44
2022-08-23T13:16:32.906Z,94948.13
2022-08-23T13:19:21.786Z,94944.66
2022-08-23T13:22:02.761Z,94947.16
2022-08-23T13:25:24.686Z,94949.75
2022-08-23T13:28:40.776Z,94939.22
2022-08-23T13:31:34.830Z,94949.56
2022-08-23T13:34:49.999Z,94946.84
2022-08-23T13:37:39.802Z,94944.97
2022-08-23T13:40:18.932Z,94951.66
2022-08-23T13:43:18.803Z,94945.59
2022-08-23T13:45:58.871Z,94943.22
2022-08-23T13:48:57.801Z,94947.56
2022-08-23T13:55:22.771Z,94945.09
2022-08-23T13:58:16.802Z,94946.00
2022-08-23T14:00:55.800Z,94947.69
2022-08-23T14:03:42.842Z,94943.41
2022-08-23T14:06:22.823Z,94947.78
2022-08-23T14:09:12.813Z,94947.78
2022-08-23T14:11:45.908Z,94944.22
2022-08-23T14:14:34.811Z,94939.88
2022-08-23T14:17:10.689Z,94944.97
2022-08-23T14:23:04.850Z,94949.66
2022-08-23T14:26:08.801Z,94944.44
2022-08-23T14:29:04.825Z,94953.84
2022-08-23T14:31:58.842Z,94956.88
2022-08-23T14:34:52.807Z,94948.06
2022-08-23T14:40:39.818Z,94957.06
2022-08-23T14:43:27.849Z,94950.41
2022-08-23T14:46:02.000Z,94965.00
2022-08-23T14:48:48.837Z,94959.88
2022-08-23T14:51:45.830Z,94966.16
2022-08-23T14:54:33.807Z,94963.66
2022-08-23T14:57:06.931Z,94965.22
2022-08-23T14:59:53.817Z,94961.03
2022-08-23T15:02:32.072Z,94956.78
2022-08-23T15:08:20.855Z,94947.47
2022-08-23T15:14:24.701Z,94958.66
2022-08-23T15:16:57.944Z,94955.31
2022-08-23T15:19:44.833Z,94958.13
2022-08-23T15:22:24.839Z,94971.28
2022-08-23T15:25:19.834Z,94974.19
2022-08-23T15:28:12.894Z,94971.91
2022-08-23T15:30:48.911Z,94982.53
2022-08-23T15:33:36.857Z,94978.47
2022-08-23T15:36:18.862Z,94981.06
2022-08-23T15:39:12.866Z,94976.06
2022-08-23T15:42:06.862Z,94972.72
2022-08-23T15:44:53.864Z,94976.38
2022-08-23T15:47:32.009Z,94970.44
2022-08-23T15:50:18.888Z,94975.66
2022-08-23T15:52:58.937Z,94973.03
2022-08-23T15:55:45.873Z,94986.16
2022-08-23T15:58:31.852Z,94988.03
2022-08-23T16:01:25.961Z,95000.31
2022-08-23T16:04:20.868Z,95003.97
2022-08-23T16:07:07.898Z,95005.84
2022-08-23T16:09:42.968Z,95017.13
2022-08-23T16:12:29.874Z,95011.16
2022-08-23T16:15:02.977Z,95004.38
2022-08-23T16:17:49.889Z,95010.44
2022-08-23T16:20:29.899Z,95008.66
2022-08-23T16:23:17.887Z,95013.03
2022-08-23T16:26:01.015Z,95009.59
2022-08-23T16:28:55.896Z,95012.31
2022-08-23T16:31:43.873Z,95018.34
2022-08-23T16:34:23.973Z,95011.56
2022-08-23T16:37:12.902Z,95013.34
2022-08-23T16:39:46.674Z,95007.28
2022-08-23T16:42:33.886Z,95019.69
2022-08-23T16:45:13.901Z,95025.72
2022-08-23T16:48:00.903Z,95022.59
2022-08-23T16:50:34.288Z,95026.03
2022-08-23T16:53:21.920Z,95027.06
2022-08-23T16:56:01.895Z,95040.09
2022-08-23T16:58:56.932Z,95041.88
2022-08-23T17:02:04.443Z,95045.41
2022-08-23T17:05:04.940Z,95048.88
2022-08-23T17:07:52.918Z,95047.47
2022-08-23T17:10:33.898Z,95049.34
2022-08-23T17:13:28.927Z,95044.63
2022-08-23T17:16:24.929Z,95053.66
2022-08-23T17:19:11.937Z,95054.25
2022-08-23T17:21:46.010Z,95047.66
2022-08-23T17:24:32.938Z,95064.41
2022-08-23T17:27:19.386Z,95070.84
2022-08-23T17:30:13.922Z,95078.09
2022-08-23T17:33:02.077Z,95092.41
2022-08-23T17:35:44.912Z,95091.78
2022-08-23T17:38:38.937Z,95106.81
2022-08-23T17:41:33.536Z,95114.00
2022-08-23T17:44:28.971Z,95116.75
2022-08-23T17:47:21.929Z,95110.09
2022-08-23T17:49:57.122Z,95101.63
2022-08-23T17:52:43.928Z,95113.88
2022-08-23T17:55:18.478Z,95127.84
2022-08-23T17:58:03.693Z,95132.38
2022-08-23T18:00:59.029Z,95130.88
2022-08-23T18:03:52.952Z,95130.41
2022-08-23T18:06:42.959Z,95123.91
2022-08-23T18:09:22.937Z,95126.84
2022-08-23T18:12:16.958Z,95135.03
2022-08-23T18:15:10.945Z,95141.53
2022-08-23T18:18:04.969Z,95158.25
2022-08-23T18:20:51.974Z,95162.94
2022-08-23T18:23:32.986Z,95170.97
2022-08-23T18:26:44.986Z,95182.56
2022-08-23T18:29:32.951Z,95176.03
2022-08-23T18:32:07.032Z,95184.09
2022-08-23T18:34:53.959Z,95192.97
2022-08-23T18:37:27.077Z,95186.38
2022-08-23T18:40:14.012Z,95188.28
2022-08-23T18:42:47.055Z,95181.59
2022-08-23T18:45:33.990Z,95180.94
2022-08-23T18:48:07.052Z,95180.34
2022-08-23T18:50:54.976Z,95184.94
2022-08-23T18:53:28.057Z,95182.59
2022-08-23T18:56:14.977Z,95177.75
2022-08-23T18:58:54.968Z,95189.13
2022-08-23T19:01:47.020Z,95186.88
2022-08-23T19:04:21.051Z,95191.56
2022-08-23T19:07:07.974Z,95191.72
2022-08-23T19:09:41.073Z,95205.63
2022-08-23T19:12:27.972Z,95204.03
2022-08-23T19:15:01.070Z,95211.91
2022-08-23T19:17:48.011Z,95206.06
2022-08-23T19:20:22.074Z,95202.66
2022-08-23T19:23:08.999Z,95208.94
2022-08-23T19:25:57.991Z,95197.94
2022-08-23T19:28:51.991Z,95195.59
2022-08-23T19:31:50.044Z,95196.59
2022-08-23T19:34:44.005Z,95200.09
2022-08-23T19:37:30.988Z,95199.56
2022-08-23T19:40:14.078Z,95208.44
2022-08-23T19:43:08.023Z,95206.06
2022-08-23T19:45:55.062Z,95213.09
2022-08-23T19:48:35.015Z,95209.78
2022-08-23T19:51:35.011Z,95206.47
2022-08-23T19:54:22.025Z,95217.88
2022-08-23T19:57:00.119Z,95219.75
2022-08-23T19:59:47.010Z,95221.69
2022-08-23T20:02:20.273Z,95221.00
2022-08-23T20:05:06.996Z,95221.91
2022-08-23T20:07:49.035Z,95222.88
2022-08-23T20:10:43.017Z,95225.59
2022-08-23T20:13:37.035Z,95232.66
2022-08-23T20:16:33.086Z,95221.53
2022-08-23T20:19:20.009Z,95225.09
2022-08-23T20:22:16.360Z,95224.56
2022-08-23T20:25:03.027Z,95229.22
2022-08-23T20:27:45.036Z,95228.38
2022-08-23T20:30:39.031Z,95231.91
2022-08-23T20:33:33.062Z,95235.50
2022-08-23T20:36:20.041Z,95236.34
2022-08-23T20:39:01.035Z,95231.44
2022-08-23T20:41:55.044Z,95230.78
2022-08-23T20:44:43.038Z,95238.72
2022-08-23T20:47:17.233Z,95225.75
2022-08-23T20:50:04.054Z,95219.94
2022-08-23T20:52:44.035Z,95226.06
2022-08-23T20:55:41.047Z,95227.09
2022-08-23T20:58:28.041Z,95224.53
2022-08-23T21:01:10.205Z,95224.44
2022-08-23T21:03:58.037Z,95220.31
2022-08-23T21:06:37.751Z,95223.03
2022-08-23T21:09:29.436Z,95221.44
2022-08-23T21:12:03.195Z,95226.72
2022-08-23T21:14:50.046Z,95221.59
2022-08-23T21:17:23.120Z,95216.47
2022-08-23T21:20:12.065Z,95226.00
2022-08-23T21:22:52.040Z,95228.75
2022-08-23T21:25:39.089Z,95233.09
2022-08-23T21:28:19.065Z,95228.00
2022-08-23T21:31:24.180Z,95223.69
2022-08-23T21:34:12.084Z,95222.19
2022-08-23T21:36:45.158Z,95215.47
2022-08-23T21:39:32.078Z,95213.88
2022-08-23T21:42:14.753Z,95222.69
2022-08-23T21:45:03.022Z,95219.38
2022-08-23T21:47:37.148Z,95213.38
2022-08-23T21:50:24.685Z,95211.63
2022-08-23T21:53:02.434Z,95204.66
2022-08-23T21:55:50.075Z,95196.91
2022-08-23T21:58:30.085Z,95201.25
2022-08-23T22:01:24.126Z,95212.53
2022-08-23T22:04:14.072Z,95214.34
2022-08-23T22:07:00.011Z,95210.16
2022-08-23T22:09:55.093Z,95212.88
2022-08-23T22:12:44.117Z,95208.69
2022-08-23T22:15:18.410Z,95209.66
2022-08-23T22:18:09.111Z,95223.59
2022-08-23T22:20:42.178Z,95226.19
2022-08-23T22:23:29.097Z,95224.59
2022-08-23T22:26:18.110Z,95222.00
2022-08-23T22:29:05.096Z,95220.41
2022-08-23T22:31:46.119Z,95222.28
2022-08-23T22:34:40.112Z,95212.13
2022-08-23T22:37:27.126Z,95222.69
2022-08-23T22:40:11.145Z,95215.13
2022-08-23T22:42:58.099Z,95214.31
2022-08-23T22:45:41.035Z,95216.09
2022-08-23T22:48:32.101Z,95214.41
2022-08-23T22:51:25.121Z,95218.72
2022-08-23T22:54:17.100Z,95214.59
2022-08-23T22:56:52.244Z,95209.56
2022-08-23T22:59:39.124Z,95212.31
2022-08-23T23:02:20.112Z,95213.19
2022-08-23T23:05:07.130Z,95219.28
2022-08-23T23:07:58.780Z,95220.13
2022-08-23T23:10:45.130Z,95209.91
2022-08-23T23:13:25.138Z,95218.66
2022-08-23T23:16:15.169Z,95218.78
2022-08-23T23:19:08.717Z,95228.34
2022-08-23T23:21:58.123Z,95218.94
2022-08-23T23:24:44.142Z,95224.09
2022-08-23T23:27:38.115Z,95225.09
2022-08-23T23:30:32.209Z,95230.31
2022-08-23T23:33:27.139Z,95232.13
2022-08-23T23:36:17.430Z,95227.88
2022-08-23T23:38:52.482Z,95216.78
2022-08-23T23:41:39.129Z,95216.84
2022-08-23T23:44:13.322Z,95210.06
2022-08-23T23:47:00.131Z,95214.63
2022-08-23T23:49:40.182Z,95210.28
2022-08-23T23:52:34.146Z,95203.38
2022-08-23T23:55:25.149Z,95205.88
2022-08-23T23:58:05.155Z,95211.88
